Strait of Georgia - south of Nanaimo: Past 24 Hour Conditions

 

La Perouse Bank - 46206

10:00 AM PST 16 December 2017Buoy position: 48.83N 126.0W
Disclaimer

This table is a summary of hourly weather conditions for the past 24 hours.
Please note that these observations might not always be representative of weather conditions over their associated marine area.

Date / Time
(PST)
Wind(knots) Wave height(m) Wave period(s) Pressure(kPa) Air tempC) Water tempC)
16 December 2017
10:00 SSE 2 gust 6 1.7 12.0 102.6 7 10
9:00 calm 1.9 10.0 102.6 8 10
8:00 NW 4 gust 6 1.8 11.0 102.6 8 10
7:00 WNW 8 gust 10 2.0 10.0 102.6 8 10
6:00 WNW 10 gust 12 1.9 10.0 102.6 9 10
5:00 WNW 12 gust 14 2.0 10.0 102.5 9 10
4:00 WNW 14 gust 18 2.1 10.0 102.6 9 10
3:00 WNW 16 gust 19 2.1 10.0 102.6 9 10
2:00 WNW 16 gust 19 2.1 10.0 102.6 9 10
1:00 NW 16 gust 19 2.3 12.0 102.6 9 9
0:00 WNW 18 gust 19 2.3 11.0 102.6 9 9
15 December 2017
23:00 WNW 16 gust 19 2.4 12.0 102.6 9 10
22:00 WNW 18 gust 19 2.5 12.0 102.5 9 10
21:00 WNW 19 gust 23 2.4 11.0 102.6 9 10
20:00 NW 19 gust 25 2.7 7.0 102.5 9 10
19:00 NW 23 gust 27 2.9 7.0 102.5 9 10
18:00 WNW 25 gust 29 2.9 7.0 102.5 9 10
17:00 WNW 25 gust 31 2.9 7.0 102.4 9 10
16:00 WNW 23 gust 29 3.0 11.0 102.4 9 10
15:00 WNW 27 gust 33 2.8 11.0 102.3 9 10
14:00 WNW 23 gust 29 2.8 11.0 102.3 9 10
13:00 WNW 19 gust 23 2.6 10.0 102.2 9 10
12:00 WNW 19 gust 23 2.6 11.0 102.3 9 10
11:00 WNW 19 gust 25 2.8 12.0 102.3 10 10
10:00 WNW 19 gust 23 2.4 14.0 102.3 10 10

Zoom-in to make a selection

Map of Pacific - South Coast marine weather areas Tsawwassen Ferry Terminal South Nomad - 46036 Sentry Shoal - 46131 South Brooks - 46132 Halibut Bank - 46146 South Moresby - 46147 South Hecate Strait - 46185 West Sea Otter - 46204 La Perouse Bank - 46206 East Dellwood - 46207 Discovery Island Esquimalt Harbour Kelp Reefs Malahat Race Rocks Lightstation Saturna Island Sheringham Point University of Victoria Victoria Gonzales Victoria Int'l Airport Ballenas Islands Campbell River Airport Comox Airport Entrance Island Fanny Island Nanaimo Airport Port Hardy Airport Sisters Islets Estevan Point Sartine Island Solander Island Tofino Airport Grief Point Powell River Airport Sechelt Cape St.James Bella Bella Airport Bella Coola Airport Cathedral Point Herbert Island Point Atkinson Sand Heads Lightstation Vancouver Harbour Vancouver Int'l Airport West Vancouver Port Alberni Howe Sound - Pam Rocks Squamish Airport
Legend:
buoy Buoy
land station Land Station

Pacific - South Coast Area

Another Region

What we are doing

Date modified: